sensor_id;sensor_type;location;lat;lon;timestamp;pressure;altitude;pressure_sealevel;temperature;humidity
70248;BME280;57641;51.416;5.506;2022-12-07T00:01:42;101924.28;;;10.01;62.73
70248;BME280;57641;51.416;5.506;2022-12-07T00:04:11;101934.56;;;10.06;61.85
70248;BME280;57641;51.416;5.506;2022-12-07T00:06:45;101937.22;;;10.06;61.75
70248;BME280;57641;51.416;5.506;2022-12-07T00:09:16;101929.59;;;10.01;61.62
70248;BME280;57641;51.416;5.506;2022-12-07T00:11:49;101934.09;;;10.01;62.19
70248;BME280;57641;51.416;5.506;2022-12-07T00:14:16;101926.19;;;9.99;62.32
70248;BME280;57641;51.416;5.506;2022-12-07T00:16:43;101920.41;;;9.94;62.07
70248;BME280;57641;51.416;5.506;2022-12-07T00:19:10;101919.59;;;9.94;61.99
70248;BME280;57641;51.416;5.506;2022-12-07T00:21:37;101922.47;;;9.91;61.99
70248;BME280;57641;51.416;5.506;2022-12-07T00:24:04;101910.13;;;9.90;61.98
70248;BME280;57641;51.416;5.506;2022-12-07T00:26:35;101915.44;;;9.90;61.46
70248;BME280;57641;51.416;5.506;2022-12-07T00:29:19;101915.69;;;9.87;62.43
70248;BME280;57641;51.416;5.506;2022-12-07T00:31:48;101917.78;;;9.83;62.06
70248;BME280;57641;51.416;5.506;2022-12-07T00:34:16;101910.00;;;9.80;61.21
70248;BME280;57641;51.416;5.506;2022-12-07T00:36:42;101911.34;;;9.86;61.54
70248;BME280;57641;51.416;5.506;2022-12-07T00:39:08;101913.63;;;9.90;60.87
70248;BME280;57641;51.416;5.506;2022-12-07T00:41:37;101902.97;;;9.90;60.67
70248;BME280;57641;51.416;5.506;2022-12-07T00:44:03;101899.47;;;9.90;61.35
70248;BME280;57641;51.416;5.506;2022-12-07T00:46:29;101909.53;;;9.86;60.22
70248;BME280;57641;51.416;5.506;2022-12-07T00:48:55;101905.91;;;9.87;60.16
70248;BME280;57641;51.416;5.506;2022-12-07T00:51:22;101905.41;;;9.82;60.70
70248;BME280;57641;51.416;5.506;2022-12-07T00:53:48;101901.53;;;9.75;60.37
70248;BME280;57641;51.416;5.506;2022-12-07T00:56:23;101894.03;;;9.80;60.38
70248;BME280;57641;51.416;5.506;2022-12-07T00:58:54;101899.47;;;9.79;60.20
70248;BME280;57641;51.416;5.506;2022-12-07T01:01:21;101897.19;;;9.74;60.01
70248;BME280;57641;51.416;5.506;2022-12-07T01:03:47;101893.56;;;9.75;60.78
70248;BME280;57641;51.416;5.506;2022-12-07T01:06:18;101891.53;;;9.67;60.51
70248;BME280;57641;51.416;5.506;2022-12-07T01:08:44;101895.84;;;9.68;60.60
70248;BME280;57641;51.416;5.506;2022-12-07T01:11:13;101896.69;;;9.69;60.61
70248;BME280;57641;51.416;5.506;2022-12-07T01:13:40;101897.81;;;9.66;60.36
70248;BME280;57641;51.416;5.506;2022-12-07T01:16:07;101900.00;;;9.61;60.19
70248;BME280;57641;51.416;5.506;2022-12-07T01:18:35;101898.88;;;9.53;60.54
70248;BME280;57641;51.416;5.506;2022-12-07T01:21:06;101902.03;;;9.58;60.88
70248;BME280;57641;51.416;5.506;2022-12-07T01:23:34;101906.00;;;9.52;60.28
70248;BME280;57641;51.416;5.506;2022-12-07T01:26:04;101905.06;;;9.53;60.24
70248;BME280;57641;51.416;5.506;2022-12-07T01:28:33;101913.41;;;9.49;59.50
70248;BME280;57641;51.416;5.506;2022-12-07T01:31:01;101905.91;;;9.43;59.32
70248;BME280;57641;51.416;5.506;2022-12-07T01:33:32;101904.94;;;9.44;59.95
70248;BME280;57641;51.416;5.506;2022-12-07T01:36:07;101904.56;;;9.37;59.56
70248;BME280;57641;51.416;5.506;2022-12-07T01:38:33;101906.63;;;9.33;59.92
70248;BME280;57641;51.416;5.506;2022-12-07T01:41:00;101911.09;;;9.33;59.91
70248;BME280;57641;51.416;5.506;2022-12-07T01:43:28;101916.16;;;9.36;59.62
70248;BME280;57641;51.416;5.506;2022-12-07T01:45:55;101911.47;;;9.40;59.92
70248;BME280;57641;51.416;5.506;2022-12-07T01:48:27;101911.69;;;9.37;59.76
70248;BME280;57641;51.416;5.506;2022-12-07T01:50:56;101907.97;;;9.39;60.33
70248;BME280;57641;51.416;5.506;2022-12-07T01:53:25;101907.38;;;9.36;60.59
70248;BME280;57641;51.416;5.506;2022-12-07T01:55:52;101903.22;;;9.31;61.07
70248;BME280;57641;51.416;5.506;2022-12-07T01:58:19;101907.69;;;9.31;60.79
70248;BME280;57641;51.416;5.506;2022-12-07T02:00:45;101902.25;;;9.32;61.22
70248;BME280;57641;51.416;5.506;2022-12-07T02:05:43;101916.16;;;9.36;61.11
70248;BME280;57641;51.416;5.506;2022-12-07T02:08:11;101910.97;;;9.35;61.88
70248;BME280;57641;51.416;5.506;2022-12-07T02:10:37;101906.16;;;9.40;62.24
70248;BME280;57641;51.416;5.506;2022-12-07T02:15:55;101902.16;;;9.34;62.98
70248;BME280;57641;51.416;5.506;2022-12-07T02:18:42;101905.19;;;9.29;62.98
70248;BME280;57641;51.416;5.506;2022-12-07T02:28:21;101896.94;;;9.32;62.81
70248;BME280;57641;51.416;5.506;2022-12-07T02:30:42;101900.69;;;9.30;63.13
70248;BME280;57641;51.416;5.506;2022-12-07T02:33:19;101897.19;;;9.41;63.17
70248;BME280;57641;51.416;5.506;2022-12-07T02:38:36;101902.16;;;9.45;62.25
70248;BME280;57641;51.416;5.506;2022-12-07T02:43:46;101894.88;;;9.47;62.30
70248;BME280;57641;51.416;5.506;2022-12-07T02:46:21;101892.47;;;9.55;61.90
70248;BME280;57641;51.416;5.506;2022-12-07T02:48:47;101892.84;;;9.51;61.58
70248;BME280;57641;51.416;5.506;2022-12-07T02:51:13;101879.28;;;9.54;61.11
70248;BME280;57641;51.416;5.506;2022-12-07T02:53:41;101880.72;;;9.58;60.91
70248;BME280;57641;51.416;5.506;2022-12-07T02:58:57;101884.00;;;9.50;60.54
70248;BME280;57641;51.416;5.506;2022-12-07T03:07:18;101892.34;;;9.35;60.19
70248;BME280;57641;51.416;5.506;2022-12-07T03:10:11;101899.84;;;9.29;60.51
70248;BME280;57641;51.416;5.506;2022-12-07T03:12:47;101895.72;;;9.25;60.00
70248;BME280;57641;51.416;5.506;2022-12-07T03:15:26;101902.03;;;9.24;59.79
70248;BME280;57641;51.416;5.506;2022-12-07T03:17:56;101897.28;;;9.17;60.76
70248;BME280;57641;51.416;5.506;2022-12-07T03:20:26;101894.63;;;9.28;60.73
70248;BME280;57641;51.416;5.506;2022-12-07T03:22:54;101902.97;;;9.23;61.63
70248;BME280;57641;51.416;5.506;2022-12-07T03:25:20;101893.78;;;9.27;61.46
70248;BME280;57641;51.416;5.506;2022-12-07T03:28:00;101898.16;;;9.28;61.25
70248;BME280;57641;51.416;5.506;2022-12-07T03:33:49;101894.41;;;9.20;61.93
70248;BME280;57641;51.416;5.506;2022-12-07T03:36:29;101887.38;;;9.19;62.14
70248;BME280;57641;51.416;5.506;2022-12-07T03:41:53;101887.72;;;9.25;61.59
70248;BME280;57641;51.416;5.506;2022-12-07T03:44:21;101883.16;;;9.27;61.73
70248;BME280;57641;51.416;5.506;2022-12-07T03:46:56;101880.00;;;9.22;61.21
70248;BME280;57641;51.416;5.506;2022-12-07T03:49:37;101879.63;;;9.27;61.52
70248;BME280;57641;51.416;5.506;2022-12-07T03:52:20;101875.06;;;9.29;61.45
70248;BME280;57641;51.416;5.506;2022-12-07T03:55:05;101882.78;;;9.32;61.07
70248;BME280;57641;51.416;5.506;2022-12-07T03:57:35;101888.47;;;9.27;61.68
70248;BME280;57641;51.416;5.506;2022-12-07T04:00:06;101890.16;;;9.28;61.56
70248;BME280;57641;51.416;5.506;2022-12-07T04:02:33;101896.44;;;9.27;61.76
70248;BME280;57641;51.416;5.506;2022-12-07T04:04:59;101900.69;;;9.30;62.15
70248;BME280;57641;51.416;5.506;2022-12-07T04:07:28;101888.59;;;9.37;61.60
70248;BME280;57641;51.416;5.506;2022-12-07T04:09:54;101885.94;;;9.37;61.94
70248;BME280;57641;51.416;5.506;2022-12-07T04:12:23;101884.72;;;9.41;61.99
70248;BME280;57641;51.416;5.506;2022-12-07T04:14:48;101874.44;;;9.37;62.27
70248;BME280;57641;51.416;5.506;2022-12-07T04:17:15;101886.88;;;9.36;62.29
70248;BME280;57641;51.416;5.506;2022-12-07T04:19:40;101882.31;;;9.38;62.42
70248;BME280;57641;51.416;5.506;2022-12-07T04:22:07;101888.25;;;9.30;62.73
70248;BME280;57641;51.416;5.506;2022-12-07T04:24:34;101891.72;;;9.31;62.71
70248;BME280;57641;51.416;5.506;2022-12-07T04:27:00;101891.41;;;9.36;63.12
70248;BME280;57641;51.416;5.506;2022-12-07T04:29:26;101883.16;;;9.27;62.63
70248;BME280;57641;51.416;5.506;2022-12-07T04:31:52;101880.13;;;9.32;62.51
70248;BME280;57641;51.416;5.506;2022-12-07T04:34:20;101877.94;;;9.37;62.99
70248;BME280;57641;51.416;5.506;2022-12-07T04:36:47;101879.16;;;9.33;62.22
70248;BME280;57641;51.416;5.506;2022-12-07T04:39:24;101873.00;;;9.32;62.60
70248;BME280;57641;51.416;5.506;2022-12-07T04:41:51;101871.28;;;9.31;63.33
70248;BME280;57641;51.416;5.506;2022-12-07T04:44:17;101868.75;;;9.41;63.27
70248;BME280;57641;51.416;5.506;2022-12-07T04:46:44;101869.38;;;9.45;63.24
70248;BME280;57641;51.416;5.506;2022-12-07T04:49:11;101868.16;;;9.49;62.34
70248;BME280;57641;51.416;5.506;2022-12-07T04:51:37;101857.25;;;9.52;63.14
70248;BME280;57641;51.416;5.506;2022-12-07T04:54:06;101857.88;;;9.55;62.32
70248;BME280;57641;51.416;5.506;2022-12-07T04:56:35;101861.38;;;9.56;62.66
70248;BME280;57641;51.416;5.506;2022-12-07T04:59:01;101862.94;;;9.58;62.35
70248;BME280;57641;51.416;5.506;2022-12-07T05:01:30;101856.66;;;9.59;62.13
70248;BME280;57641;51.416;5.506;2022-12-07T05:03:57;101862.22;;;9.56;62.49
70248;BME280;57641;51.416;5.506;2022-12-07T05:06:22;101852.56;;;9.44;62.31
70248;BME280;57641;51.416;5.506;2022-12-07T05:08:50;101857.63;;;9.36;62.80
70248;BME280;57641;51.416;5.506;2022-12-07T05:11:16;101866.81;;;9.43;63.00
70248;BME280;57641;51.416;5.506;2022-12-07T05:16:34;101875.06;;;9.40;63.01
70248;BME280;57641;51.416;5.506;2022-12-07T05:19:00;101863.69;;;9.49;63.10
70248;BME280;57641;51.416;5.506;2022-12-07T05:21:28;101860.75;;;9.52;63.18
70248;BME280;57641;51.416;5.506;2022-12-07T05:23:54;101860.75;;;9.52;62.59
70248;BME280;57641;51.416;5.506;2022-12-07T05:26:19;101862.34;;;9.55;62.68
70248;BME280;57641;51.416;5.506;2022-12-07T05:28:45;101858.56;;;9.57;62.80
70248;BME280;57641;51.416;5.506;2022-12-07T05:31:14;101860.16;;;9.60;62.98
70248;BME280;57641;51.416;5.506;2022-12-07T05:33:40;101857.25;;;9.63;62.37
70248;BME280;57641;51.416;5.506;2022-12-07T05:36:06;101860.41;;;9.57;62.74
70248;BME280;57641;51.416;5.506;2022-12-07T05:38:33;101864.63;;;9.59;62.12
70248;BME280;57641;51.416;5.506;2022-12-07T05:41:03;101860.66;;;9.65;62.12
70248;BME280;57641;51.416;5.506;2022-12-07T05:43:30;101863.31;;;9.65;62.52
70248;BME280;57641;51.416;5.506;2022-12-07T05:45:56;101855.19;;;9.66;62.41
70248;BME280;57641;51.416;5.506;2022-12-07T05:48:22;101849.25;;;9.63;61.71
70248;BME280;57641;51.416;5.506;2022-12-07T05:50:48;101851.06;;;9.62;62.32
70248;BME280;57641;51.416;5.506;2022-12-07T05:53:18;101851.06;;;9.62;62.08
70248;BME280;57641;51.416;5.506;2022-12-07T05:55:44;101840.31;;;9.64;62.09
70248;BME280;57641;51.416;5.506;2022-12-07T05:58:13;101838.97;;;9.58;61.62
70248;BME280;57641;51.416;5.506;2022-12-07T06:00:57;101843.22;;;9.50;62.18
70248;BME280;57641;51.416;5.506;2022-12-07T06:03:23;101841.91;;;9.55;62.06
70248;BME280;57641;51.416;5.506;2022-12-07T06:05:48;101842.88;;;9.54;61.54
70248;BME280;57641;51.416;5.506;2022-12-07T06:08:15;101847.09;;;9.57;61.68
70248;BME280;57641;51.416;5.506;2022-12-07T06:10:42;101853.25;;;9.57;61.46
70248;BME280;57641;51.416;5.506;2022-12-07T06:13:08;101853.50;;;9.54;60.78
70248;BME280;57641;51.416;5.506;2022-12-07T06:15:38;101856.06;;;9.56;60.34
70248;BME280;57641;51.416;5.506;2022-12-07T06:18:03;101857.13;;;9.53;60.84
70248;BME280;57641;51.416;5.506;2022-12-07T06:20:29;101851.22;;;9.50;60.03
70248;BME280;57641;51.416;5.506;2022-12-07T06:22:55;101861.00;;;9.49;60.24
70248;BME280;57641;51.416;5.506;2022-12-07T06:25:21;101850.13;;;9.41;60.29
70248;BME280;57641;51.416;5.506;2022-12-07T06:27:46;101858.59;;;9.35;60.65
70248;BME280;57641;51.416;5.506;2022-12-07T06:30:12;101858.59;;;9.35;60.33
70248;BME280;57641;51.416;5.506;2022-12-07T06:32:37;101862.44;;;9.31;60.15
70248;BME280;57641;51.416;5.506;2022-12-07T06:35:04;101858.13;;;9.30;60.10
70248;BME280;57641;51.416;5.506;2022-12-07T06:37:29;101864.53;;;9.27;60.01
70248;BME280;57641;51.416;5.506;2022-12-07T06:39:55;101858.22;;;9.28;59.47
70248;BME280;57641;51.416;5.506;2022-12-07T06:42:21;101864.03;;;9.22;59.53
70248;BME280;57641;51.416;5.506;2022-12-07T06:44:46;101862.97;;;9.25;59.16
70248;BME280;57641;51.416;5.506;2022-12-07T06:47:12;101855.44;;;9.19;59.27
70248;BME280;57641;51.416;5.506;2022-12-07T06:49:37;101859.28;;;9.15;59.56
70248;BME280;57641;51.416;5.506;2022-12-07T06:52:03;101862.22;;;9.12;59.51
70248;BME280;57641;51.416;5.506;2022-12-07T06:54:30;101867.78;;;9.09;59.91
70248;BME280;57641;51.416;5.506;2022-12-07T06:56:55;101874.16;;;9.06;59.58
70248;BME280;57641;51.416;5.506;2022-12-07T06:59:21;101871.63;;;9.05;59.73
70248;BME280;57641;51.416;5.506;2022-12-07T07:01:46;101866.28;;;9.05;60.05
70248;BME280;57641;51.416;5.506;2022-12-07T07:04:11;101862.56;;;9.07;59.69
70248;BME280;57641;51.416;5.506;2022-12-07T07:06:37;101873.22;;;9.07;59.72
70248;BME280;57641;51.416;5.506;2022-12-07T07:09:03;101866.78;;;9.10;60.28
70248;BME280;57641;51.416;5.506;2022-12-07T07:11:28;101869.69;;;9.07;60.28
70248;BME280;57641;51.416;5.506;2022-12-07T07:13:54;101863.28;;;8.98;60.41
70248;BME280;57641;51.416;5.506;2022-12-07T07:16:23;101863.75;;;8.92;60.99
70248;BME280;57641;51.416;5.506;2022-12-07T07:18:50;101865.31;;;8.95;61.70
70248;BME280;57641;51.416;5.506;2022-12-07T07:21:15;101865.91;;;8.87;61.48
70248;BME280;57641;51.416;5.506;2022-12-07T07:23:41;101863.00;;;8.90;61.54
70248;BME280;57641;51.416;5.506;2022-12-07T07:26:06;101868.47;;;9.00;61.92
70248;BME280;57641;51.416;5.506;2022-12-07T07:28:32;101870.91;;;9.03;61.79
70248;BME280;57641;51.416;5.506;2022-12-07T07:30:57;101875.97;;;9.06;61.38
70248;BME280;57641;51.416;5.506;2022-12-07T07:33:24;101856.66;;;9.04;61.00
70248;BME280;57641;51.416;5.506;2022-12-07T07:35:49;101862.47;;;9.09;60.96
70248;BME280;57641;51.416;5.506;2022-12-07T07:38:15;101867.63;;;9.10;61.04
70248;BME280;57641;51.416;5.506;2022-12-07T07:40:41;101869.34;;;9.11;60.84
70248;BME280;57641;51.416;5.506;2022-12-07T07:43:06;101865.47;;;9.15;61.12
70248;BME280;57641;51.416;5.506;2022-12-07T07:45:32;101876.00;;;9.17;60.50
70248;BME280;57641;51.416;5.506;2022-12-07T07:47:58;101875.25;;;9.15;60.29
70248;BME280;57641;51.416;5.506;2022-12-07T07:50:23;101873.94;;;9.20;61.00
70248;BME280;57641;51.416;5.506;2022-12-07T07:52:48;101881.81;;;9.22;61.14
70248;BME280;57641;51.416;5.506;2022-12-07T07:55:14;101887.13;;;9.22;61.03
70248;BME280;57641;51.416;5.506;2022-12-07T07:57:40;101882.06;;;9.19;61.10
70248;BME280;57641;51.416;5.506;2022-12-07T08:00:12;101884.47;;;9.22;60.88
70248;BME280;57641;51.416;5.506;2022-12-07T08:02:38;101891.09;;;9.16;61.28
70248;BME280;57641;51.416;5.506;2022-12-07T08:05:08;101886.28;;;9.21;61.21
70248;BME280;57641;51.416;5.506;2022-12-07T08:07:34;101888.69;;;9.13;61.35
70248;BME280;57641;51.416;5.506;2022-12-07T08:10:00;101880.56;;;9.15;60.97
70248;BME280;57641;51.416;5.506;2022-12-07T08:12:25;101892.81;;;9.17;62.13
70248;BME280;57641;51.416;5.506;2022-12-07T08:14:51;101887.97;;;9.22;61.79
70248;BME280;57641;51.416;5.506;2022-12-07T08:17:17;101885.06;;;9.14;62.06
70248;BME280;57641;51.416;5.506;2022-12-07T08:19:43;101885.06;;;9.14;61.55
70248;BME280;57641;51.416;5.506;2022-12-07T08:22:08;101891.09;;;9.16;62.48
70248;BME280;57641;51.416;5.506;2022-12-07T08:24:34;101888.44;;;9.05;62.66
70248;BME280;57641;51.416;5.506;2022-12-07T08:27:02;101887.09;;;9.11;62.14
70248;BME280;57641;51.416;5.506;2022-12-07T08:29:28;101895.22;;;9.09;62.28
70248;BME280;57641;51.416;5.506;2022-12-07T08:31:55;101898.50;;;9.13;62.19
70248;BME280;57641;51.416;5.506;2022-12-07T08:34:21;101902.72;;;9.15;62.48
70248;BME280;57641;51.416;5.506;2022-12-07T08:36:46;101902.13;;;9.12;62.56
70248;BME280;57641;51.416;5.506;2022-12-07T08:39:12;101914.56;;;9.11;61.81
70248;BME280;57641;51.416;5.506;2022-12-07T08:41:37;101915.06;;;9.16;62.36
70248;BME280;57641;51.416;5.506;2022-12-07T08:44:06;101910.38;;;9.20;62.17
70248;BME280;57641;51.416;5.506;2022-12-07T08:46:57;101905.75;;;9.22;62.04
70248;BME280;57641;51.416;5.506;2022-12-07T08:49:38;101907.03;;;9.05;61.75
70248;BME280;57641;51.416;5.506;2022-12-07T08:52:05;101907.91;;;9.06;62.88
70248;BME280;57641;51.416;5.506;2022-12-07T08:54:34;101902.47;;;9.07;62.40
70248;BME280;57641;51.416;5.506;2022-12-07T08:57:02;101894.63;;;9.17;62.42
70248;BME280;57641;51.416;5.506;2022-12-07T08:59:28;101905.38;;;9.15;62.48
70248;BME280;57641;51.416;5.506;2022-12-07T09:01:54;101889.44;;;9.26;62.22
70248;BME280;57641;51.416;5.506;2022-12-07T09:04:19;101896.94;;;9.32;62.10
70248;BME280;57641;51.416;5.506;2022-12-07T09:06:45;101904.91;;;9.32;62.15
70248;BME280;57641;51.416;5.506;2022-12-07T09:09:12;101899.63;;;9.44;61.83
70248;BME280;57641;51.416;5.506;2022-12-07T09:11:39;101895.25;;;9.54;61.55
70248;BME280;57641;51.416;5.506;2022-12-07T09:14:05;101894.41;;;9.53;60.99
70248;BME280;57641;51.416;5.506;2022-12-07T09:16:30;101898.03;;;9.63;61.71
70248;BME280;57641;51.416;5.506;2022-12-07T09:18:56;101892.47;;;9.66;61.44
70248;BME280;57641;51.416;5.506;2022-12-07T09:21:21;101893.44;;;9.65;60.74
70248;BME280;57641;51.416;5.506;2022-12-07T09:23:48;101895.16;;;9.66;60.83
70248;BME280;57641;51.416;5.506;2022-12-07T09:26:14;101895.25;;;9.76;61.44
70248;BME280;57641;51.416;5.506;2022-12-07T09:28:40;101889.94;;;9.65;60.77
70248;BME280;57641;51.416;5.506;2022-12-07T09:31:05;101894.50;;;9.74;60.85
70248;BME280;57641;51.416;5.506;2022-12-07T09:33:31;101897.91;;;9.76;61.28
70248;BME280;57641;51.416;5.506;2022-12-07T09:35:57;101894.88;;;9.69;61.60
70248;BME280;57641;51.416;5.506;2022-12-07T09:38:23;101891.75;;;9.64;61.72
70248;BME280;57641;51.416;5.506;2022-12-07T09:40:54;101888.97;;;9.77;60.90
70248;BME280;57641;51.416;5.506;2022-12-07T09:43:22;101890.03;;;9.74;60.63
70248;BME280;57641;51.416;5.506;2022-12-07T09:45:51;101892.69;;;9.86;60.98
70248;BME280;57641;51.416;5.506;2022-12-07T09:48:27;101891.97;;;9.84;60.68
70248;BME280;57641;51.416;5.506;2022-12-07T09:50:57;101893.31;;;9.78;60.21
70248;BME280;57641;51.416;5.506;2022-12-07T09:53:33;101894.50;;;9.85;60.59
70248;BME280;57641;51.416;5.506;2022-12-07T09:56:01;101901.66;;;9.85;60.16
70248;BME280;57641;51.416;5.506;2022-12-07T09:58:28;101893.06;;;9.81;60.70
70248;BME280;57641;51.416;5.506;2022-12-07T10:03:35;101887.00;;;9.79;60.99
70248;BME280;57641;51.416;5.506;2022-12-07T10:06:05;101890.88;;;9.86;60.88
70248;BME280;57641;51.416;5.506;2022-12-07T10:08:32;101889.66;;;9.90;60.60
70248;BME280;57641;51.416;5.506;2022-12-07T10:10:59;101889.66;;;9.90;60.62
70248;BME280;57641;51.416;5.506;2022-12-07T10:13:39;101882.31;;;9.83;60.87
70248;BME280;57641;51.416;5.506;2022-12-07T10:16:07;101879.25;;;9.87;61.11
70248;BME280;57641;51.416;5.506;2022-12-07T10:18:53;101872.97;;;9.88;60.57
70248;BME280;57641;51.416;5.506;2022-12-07T10:21:26;101871.00;;;9.90;61.04
70248;BME280;57641;51.416;5.506;2022-12-07T10:26:52;101864.69;;;10.02;60.33
70248;BME280;57641;51.416;5.506;2022-12-07T10:29:31;101863.97;;;10.00;59.68
70248;BME280;57641;51.416;5.506;2022-12-07T10:32:02;101862.66;;;9.95;59.12
70248;BME280;57641;51.416;5.506;2022-12-07T10:34:31;101849.06;;;10.09;59.93
70248;BME280;57641;51.416;5.506;2022-12-07T10:37:18;101846.97;;;10.24;60.17
70248;BME280;57641;51.416;5.506;2022-12-07T10:39:50;101852.16;;;10.36;59.20
70248;BME280;57641;51.416;5.506;2022-12-07T10:42:21;101853.31;;;10.43;59.49
70248;BME280;57641;51.416;5.506;2022-12-07T10:44:49;101840.78;;;10.55;59.57
70248;BME280;57641;51.416;5.506;2022-12-07T10:47:59;101840.72;;;10.66;58.66
70248;BME280;57641;51.416;5.506;2022-12-07T10:53:43;101832.72;;;10.45;59.55
70248;BME280;57641;51.416;5.506;2022-12-07T11:04:57;101827.91;;;10.39;58.99
70248;BME280;57641;51.416;5.506;2022-12-07T11:10:37;101818.13;;;10.29;60.08
70248;BME280;57641;51.416;5.506;2022-12-07T11:13:33;101827.56;;;10.33;59.66
70248;BME280;57641;51.416;5.506;2022-12-07T11:16:13;101821.88;;;10.26;60.47
70248;BME280;57641;51.416;5.506;2022-12-07T11:19:27;101809.25;;;10.60;59.44
70248;BME280;57641;51.416;5.506;2022-12-07T11:21:57;101807.66;;;10.57;58.77
70248;BME280;57641;51.416;5.506;2022-12-07T11:24:49;101803.41;;;10.66;59.38
70248;BME280;57641;51.416;5.506;2022-12-07T11:27:38;101791.88;;;10.66;58.91
70248;BME280;57641;51.416;5.506;2022-12-07T11:30:14;101802.34;;;10.57;59.79
70248;BME280;57641;51.416;5.506;2022-12-07T11:32:55;101793.91;;;10.73;58.96
70248;BME280;57641;51.416;5.506;2022-12-07T11:35:46;101801.25;;;10.60;58.26
70248;BME280;57641;51.416;5.506;2022-12-07T11:41:25;101790.13;;;10.55;57.80
70248;BME280;57641;51.416;5.506;2022-12-07T11:49:43;101778.16;;;11.00;57.65
70248;BME280;57641;51.416;5.506;2022-12-07T11:52:19;101778.91;;;10.82;57.69
70248;BME280;57641;51.416;5.506;2022-12-07T11:54:47;101780.91;;;10.89;57.49
70248;BME280;57641;51.416;5.506;2022-12-07T11:57:22;101774.59;;;10.90;57.52
70248;BME280;57641;51.416;5.506;2022-12-07T11:59:52;101768.75;;;10.96;57.96
70248;BME280;57641;51.416;5.506;2022-12-07T12:02:34;101764.78;;;10.91;57.39
70248;BME280;57641;51.416;5.506;2022-12-07T12:07:44;101769.09;;;11.13;57.68
70248;BME280;57641;51.416;5.506;2022-12-07T12:10:20;101769.09;;;11.13;57.45
70248;BME280;57641;51.416;5.506;2022-12-07T12:15:56;101773.22;;;11.26;57.46
70248;BME280;57641;51.416;5.506;2022-12-07T12:21:10;101773.38;;;10.74;59.40
70248;BME280;57641;51.416;5.506;2022-12-07T12:23:43;101763.34;;;10.87;58.99
70248;BME280;57641;51.416;5.506;2022-12-07T12:26:19;101761.72;;;10.95;57.72
70248;BME280;57641;51.416;5.506;2022-12-07T12:28:58;101754.38;;;10.88;58.15
70248;BME280;57641;51.416;5.506;2022-12-07T12:31:38;101751.72;;;10.88;58.78
70248;BME280;57641;51.416;5.506;2022-12-07T12:36:56;101736.66;;;11.17;59.87
70248;BME280;57641;51.416;5.506;2022-12-07T12:39:22;101742.75;;;11.29;59.29
70248;BME280;57641;51.416;5.506;2022-12-07T12:41:55;101740.38;;;11.35;58.45
70248;BME280;57641;51.416;5.506;2022-12-07T12:46:59;101723.63;;;11.24;57.34
70248;BME280;57641;51.416;5.506;2022-12-07T12:51:58;101724.34;;;11.26;56.99
70248;BME280;57641;51.416;5.506;2022-12-07T12:54:28;101723.75;;;11.32;56.83
70248;BME280;57641;51.416;5.506;2022-12-07T12:59:34;101721.41;;;11.38;56.72
70248;BME280;57641;51.416;5.506;2022-12-07T13:04:58;101718.03;;;11.36;55.89
70248;BME280;57641;51.416;5.506;2022-12-07T13:15:49;101703.00;;;10.95;55.87
70248;BME280;57641;51.416;5.506;2022-12-07T13:29:06;101690.44;;;11.17;56.12
70248;BME280;57641;51.416;5.506;2022-12-07T13:34:27;101688.06;;;11.14;55.99
70248;BME280;57641;51.416;5.506;2022-12-07T13:36:54;101681.63;;;11.26;56.34
70248;BME280;57641;51.416;5.506;2022-12-07T13:39:23;101684.25;;;11.16;56.31
70248;BME280;57641;51.416;5.506;2022-12-07T13:41:57;101678.91;;;11.16;55.83
70248;BME280;57641;51.416;5.506;2022-12-07T13:44:25;101683.97;;;11.10;57.26
70248;BME280;57641;51.416;5.506;2022-12-07T13:49:32;101673.09;;;10.92;58.05
70248;BME280;57641;51.416;5.506;2022-12-07T13:57:11;101682.50;;;10.96;57.38
70248;BME280;57641;51.416;5.506;2022-12-07T13:59:37;101675.66;;;11.03;57.81
70248;BME280;57641;51.416;5.506;2022-12-07T14:04:50;101673.31;;;11.10;57.55
70248;BME280;57641;51.416;5.506;2022-12-07T14:07:34;101672.44;;;11.09;57.56
70248;BME280;57641;51.416;5.506;2022-12-07T14:10:06;101670.22;;;11.14;57.79
70248;BME280;57641;51.416;5.506;2022-12-07T14:12:36;101663.50;;;11.20;56.82
70248;BME280;57641;51.416;5.506;2022-12-07T14:15:02;101651.09;;;10.99;57.21
70248;BME280;57641;51.416;5.506;2022-12-07T14:17:28;101656.16;;;11.12;57.24
70248;BME280;57641;51.416;5.506;2022-12-07T14:19:58;101658.50;;;11.06;56.68
70248;BME280;57641;51.416;5.506;2022-12-07T14:25:11;101647.59;;;11.18;57.53
70248;BME280;57641;51.416;5.506;2022-12-07T14:27:46;101649.09;;;11.01;57.65
70248;BME280;57641;51.416;5.506;2022-12-07T14:30:17;101643.75;;;10.92;57.90
70248;BME280;57641;51.416;5.506;2022-12-07T14:32:48;101644.47;;;10.94;57.51
70248;BME280;57641;51.416;5.506;2022-12-07T14:35:18;101641.09;;;10.92;58.29
70248;BME280;57641;51.416;5.506;2022-12-07T14:37:46;101637.84;;;10.88;58.08
70248;BME280;57641;51.416;5.506;2022-12-07T14:40:21;101630.00;;;10.96;57.86
70248;BME280;57641;51.416;5.506;2022-12-07T14:42:53;101626.75;;;10.93;58.16
70248;BME280;57641;51.416;5.506;2022-12-07T14:45:21;101634.91;;;11.01;58.35
70248;BME280;57641;51.416;5.506;2022-12-07T14:47:48;101634.34;;;10.97;57.76
70248;BME280;57641;51.416;5.506;2022-12-07T14:50:16;101632.97;;;11.03;58.56
70248;BME280;57641;51.416;5.506;2022-12-07T14:52:44;101621.56;;;10.91;58.17
70248;BME280;57641;51.416;5.506;2022-12-07T14:55:22;101625.50;;;10.97;58.50
70248;BME280;57641;51.416;5.506;2022-12-07T14:57:48;101627.88;;;11.00;58.66
70248;BME280;57641;51.416;5.506;2022-12-07T15:00:15;101621.88;;;10.98;58.59
70248;BME280;57641;51.416;5.506;2022-12-07T15:02:42;101634.34;;;10.88;58.15
70248;BME280;57641;51.416;5.506;2022-12-07T15:05:08;101622.41;;;10.92;58.19
70248;BME280;57641;51.416;5.506;2022-12-07T15:07:34;101621.16;;;10.96;58.85
70248;BME280;57641;51.416;5.506;2022-12-07T15:09:59;101615.13;;;10.94;58.54
70248;BME280;57641;51.416;5.506;2022-12-07T15:12:25;101614.84;;;10.97;58.54